sensor_id;sensor_type;location;lat;lon;timestamp;P1;durP1;ratioP1;P2;durP2;ratioP2
801;SDS011;383;48.766;9.270;2023-08-17T00:01:46;11.43;;;5.60;;
801;SDS011;383;48.766;9.270;2023-08-17T00:04:13;12.53;;;6.67;;
801;SDS011;383;48.766;9.270;2023-08-17T00:06:40;12.20;;;6.30;;
801;SDS011;383;48.766;9.270;2023-08-17T00:09:07;12.00;;;6.03;;
801;SDS011;383;48.766;9.270;2023-08-17T00:11:34;9.50;;;5.70;;
801;SDS011;383;48.766;9.270;2023-08-17T00:14:01;8.60;;;5.53;;
801;SDS011;383;48.766;9.270;2023-08-17T00:16:29;15.50;;;6.40;;
801;SDS011;383;48.766;9.270;2023-08-17T00:18:56;10.00;;;6.40;;
801;SDS011;383;48.766;9.270;2023-08-17T00:21:23;8.60;;;6.00;;
801;SDS011;383;48.766;9.270;2023-08-17T00:23:50;8.97;;;6.50;;
801;SDS011;383;48.766;9.270;2023-08-17T00:26:16;11.20;;;6.10;;
801;SDS011;383;48.766;9.270;2023-08-17T00:28:43;10.43;;;6.33;;
801;SDS011;383;48.766;9.270;2023-08-17T00:31:10;9.50;;;6.57;;
801;SDS011;383;48.766;9.270;2023-08-17T00:33:38;14.00;;;7.30;;
801;SDS011;383;48.766;9.270;2023-08-17T00:36:05;11.13;;;6.67;;
801;SDS011;383;48.766;9.270;2023-08-17T00:38:31;13.43;;;8.30;;
801;SDS011;383;48.766;9.270;2023-08-17T00:40:58;11.77;;;6.60;;
801;SDS011;383;48.766;9.270;2023-08-17T00:43:25;9.30;;;6.77;;
801;SDS011;383;48.766;9.270;2023-08-17T00:45:51;14.40;;;7.60;;
801;SDS011;383;48.766;9.270;2023-08-17T00:48:19;10.40;;;7.97;;
801;SDS011;383;48.766;9.270;2023-08-17T00:50:48;19.53;;;9.70;;
801;SDS011;383;48.766;9.270;2023-08-17T00:53:16;15.93;;;8.27;;
801;SDS011;383;48.766;9.270;2023-08-17T00:55:43;17.00;;;9.70;;
801;SDS011;383;48.766;9.270;2023-08-17T00:58:11;13.70;;;8.97;;
801;SDS011;383;48.766;9.270;2023-08-17T01:00:37;17.20;;;10.07;;
801;SDS011;383;48.766;9.270;2023-08-17T01:03:04;15.57;;;9.80;;
801;SDS011;383;48.766;9.270;2023-08-17T01:05:31;25.73;;;9.10;;
801;SDS011;383;48.766;9.270;2023-08-17T01:08:00;13.13;;;9.20;;
801;SDS011;383;48.766;9.270;2023-08-17T01:10:27;15.73;;;9.33;;
801;SDS011;383;48.766;9.270;2023-08-17T01:13:05;19.90;;;10.37;;
801;SDS011;383;48.766;9.270;2023-08-17T01:15:36;15.77;;;9.40;;
801;SDS011;383;48.766;9.270;2023-08-17T01:18:04;13.73;;;9.33;;
801;SDS011;383;48.766;9.270;2023-08-17T01:20:41;14.17;;;8.47;;
801;SDS011;383;48.766;9.270;2023-08-17T01:23:10;13.87;;;9.53;;
801;SDS011;383;48.766;9.270;2023-08-17T01:25:36;20.00;;;9.70;;
801;SDS011;383;48.766;9.270;2023-08-17T01:28:03;17.33;;;10.80;;
801;SDS011;383;48.766;9.270;2023-08-17T01:30:32;20.47;;;12.13;;
801;SDS011;383;48.766;9.270;2023-08-17T01:33:06;18.87;;;12.53;;
801;SDS011;383;48.766;9.270;2023-08-17T01:35:37;20.20;;;11.80;;
801;SDS011;383;48.766;9.270;2023-08-17T01:38:07;19.77;;;11.93;;
801;SDS011;383;48.766;9.270;2023-08-17T01:40:37;26.50;;;14.23;;
801;SDS011;383;48.766;9.270;2023-08-17T01:43:04;19.30;;;12.40;;
801;SDS011;383;48.766;9.270;2023-08-17T01:45:31;29.33;;;12.20;;
801;SDS011;383;48.766;9.270;2023-08-17T01:47:58;19.10;;;11.90;;
801;SDS011;383;48.766;9.270;2023-08-17T01:50:25;22.33;;;13.13;;
801;SDS011;383;48.766;9.270;2023-08-17T01:52:52;20.80;;;11.70;;
801;SDS011;383;48.766;9.270;2023-08-17T01:55:20;18.83;;;11.30;;
801;SDS011;383;48.766;9.270;2023-08-17T01:57:49;19.93;;;10.50;;
801;SDS011;383;48.766;9.270;2023-08-17T02:00:16;17.53;;;10.10;;
801;SDS011;383;48.766;9.270;2023-08-17T02:02:43;19.93;;;11.90;;
801;SDS011;383;48.766;9.270;2023-08-17T02:05:09;17.23;;;10.63;;
801;SDS011;383;48.766;9.270;2023-08-17T02:07:36;20.80;;;12.60;;
801;SDS011;383;48.766;9.270;2023-08-17T02:10:03;21.27;;;12.07;;
801;SDS011;383;48.766;9.270;2023-08-17T02:12:30;25.40;;;11.83;;
801;SDS011;383;48.766;9.270;2023-08-17T02:14:58;17.83;;;11.60;;
801;SDS011;383;48.766;9.270;2023-08-17T02:17:25;22.23;;;11.20;;
801;SDS011;383;48.766;9.270;2023-08-17T02:19:52;21.43;;;12.37;;
801;SDS011;383;48.766;9.270;2023-08-17T02:22:18;18.10;;;11.00;;
801;SDS011;383;48.766;9.270;2023-08-17T02:24:45;22.93;;;13.17;;
801;SDS011;383;48.766;9.270;2023-08-17T02:27:12;17.13;;;10.63;;
801;SDS011;383;48.766;9.270;2023-08-17T02:29:39;20.00;;;11.60;;
801;SDS011;383;48.766;9.270;2023-08-17T02:32:07;18.17;;;12.53;;
801;SDS011;383;48.766;9.270;2023-08-17T02:34:33;21.20;;;12.47;;
801;SDS011;383;48.766;9.270;2023-08-17T02:37:00;20.37;;;12.20;;
801;SDS011;383;48.766;9.270;2023-08-17T02:39:27;23.50;;;13.03;;
801;SDS011;383;48.766;9.270;2023-08-17T02:41:53;20.57;;;12.10;;
801;SDS011;383;48.766;9.270;2023-08-17T02:44:20;18.27;;;9.97;;
801;SDS011;383;48.766;9.270;2023-08-17T02:46:47;21.00;;;12.90;;
801;SDS011;383;48.766;9.270;2023-08-17T02:49:15;20.80;;;11.50;;
801;SDS011;383;48.766;9.270;2023-08-17T02:51:41;16.40;;;10.10;;
801;SDS011;383;48.766;9.270;2023-08-17T02:54:08;18.53;;;11.40;;
801;SDS011;383;48.766;9.270;2023-08-17T02:56:35;20.50;;;11.50;;
801;SDS011;383;48.766;9.270;2023-08-17T02:59:01;17.03;;;10.50;;
801;SDS011;383;48.766;9.270;2023-08-17T03:01:28;21.20;;;13.07;;
801;SDS011;383;48.766;9.270;2023-08-17T03:03:56;18.50;;;11.70;;
801;SDS011;383;48.766;9.270;2023-08-17T03:06:24;15.70;;;10.40;;
801;SDS011;383;48.766;9.270;2023-08-17T03:08:50;18.97;;;11.07;;
801;SDS011;383;48.766;9.270;2023-08-17T03:11:18;17.03;;;10.40;;
801;SDS011;383;48.766;9.270;2023-08-17T03:13:46;18.07;;;10.73;;
801;SDS011;383;48.766;9.270;2023-08-17T03:16:13;18.83;;;11.70;;
801;SDS011;383;48.766;9.270;2023-08-17T03:18:40;19.70;;;11.23;;
801;SDS011;383;48.766;9.270;2023-08-17T03:21:08;16.87;;;11.00;;
801;SDS011;383;48.766;9.270;2023-08-17T03:23:36;22.17;;;11.93;;
801;SDS011;383;48.766;9.270;2023-08-17T03:26:03;16.83;;;11.17;;
801;SDS011;383;48.766;9.270;2023-08-17T03:28:29;14.63;;;10.40;;
801;SDS011;383;48.766;9.270;2023-08-17T03:30:56;19.80;;;11.30;;
801;SDS011;383;48.766;9.270;2023-08-17T03:33:23;25.20;;;12.40;;
801;SDS011;383;48.766;9.270;2023-08-17T03:35:49;20.13;;;12.63;;
801;SDS011;383;48.766;9.270;2023-08-17T03:38:16;21.40;;;12.20;;
801;SDS011;383;48.766;9.270;2023-08-17T03:40:44;21.40;;;12.80;;
801;SDS011;383;48.766;9.270;2023-08-17T03:43:11;19.43;;;12.30;;
801;SDS011;383;48.766;9.270;2023-08-17T03:45:37;19.27;;;11.73;;
801;SDS011;383;48.766;9.270;2023-08-17T03:48:04;28.30;;;14.30;;
801;SDS011;383;48.766;9.270;2023-08-17T03:50:32;20.07;;;12.40;;
801;SDS011;383;48.766;9.270;2023-08-17T03:52:58;24.13;;;13.30;;
801;SDS011;383;48.766;9.270;2023-08-17T03:55:25;24.17;;;12.67;;
801;SDS011;383;48.766;9.270;2023-08-17T03:57:53;25.30;;;12.70;;
801;SDS011;383;48.766;9.270;2023-08-17T04:00:20;23.67;;;13.33;;
801;SDS011;383;48.766;9.270;2023-08-17T04:02:47;23.53;;;12.23;;
801;SDS011;383;48.766;9.270;2023-08-17T04:05:13;25.80;;;12.83;;
801;SDS011;383;48.766;9.270;2023-08-17T04:07:40;21.00;;;12.17;;
801;SDS011;383;48.766;9.270;2023-08-17T04:10:07;25.90;;;13.20;;
801;SDS011;383;48.766;9.270;2023-08-17T04:12:34;19.90;;;12.63;;
801;SDS011;383;48.766;9.270;2023-08-17T04:15:03;21.17;;;12.40;;
801;SDS011;383;48.766;9.270;2023-08-17T04:17:30;21.53;;;12.90;;
801;SDS011;383;48.766;9.270;2023-08-17T04:19:57;22.33;;;14.80;;
801;SDS011;383;48.766;9.270;2023-08-17T04:22:24;21.10;;;13.93;;
801;SDS011;383;48.766;9.270;2023-08-17T04:24:51;19.33;;;11.80;;
801;SDS011;383;48.766;9.270;2023-08-17T04:27:17;20.87;;;12.47;;
801;SDS011;383;48.766;9.270;2023-08-17T04:29:44;23.93;;;13.07;;
801;SDS011;383;48.766;9.270;2023-08-17T04:32:15;25.57;;;12.40;;
801;SDS011;383;48.766;9.270;2023-08-17T04:34:42;27.27;;;13.07;;
801;SDS011;383;48.766;9.270;2023-08-17T04:37:08;22.50;;;12.33;;
801;SDS011;383;48.766;9.270;2023-08-17T04:39:35;20.57;;;11.70;;
801;SDS011;383;48.766;9.270;2023-08-17T04:42:02;20.90;;;11.47;;
801;SDS011;383;48.766;9.270;2023-08-17T04:44:29;22.47;;;12.67;;
801;SDS011;383;48.766;9.270;2023-08-17T04:46:56;18.23;;;11.97;;
801;SDS011;383;48.766;9.270;2023-08-17T04:49:24;28.00;;;12.90;;
801;SDS011;383;48.766;9.270;2023-08-17T04:51:51;19.57;;;12.13;;
801;SDS011;383;48.766;9.270;2023-08-17T04:54:17;18.83;;;11.63;;
801;SDS011;383;48.766;9.270;2023-08-17T04:56:44;22.60;;;12.67;;
801;SDS011;383;48.766;9.270;2023-08-17T04:59:11;20.37;;;13.20;;
801;SDS011;383;48.766;9.270;2023-08-17T05:01:38;19.43;;;11.90;;
801;SDS011;383;48.766;9.270;2023-08-17T05:04:05;23.03;;;13.00;;
801;SDS011;383;48.766;9.270;2023-08-17T05:06:33;18.13;;;11.93;;
801;SDS011;383;48.766;9.270;2023-08-17T05:09:02;23.80;;;12.03;;
801;SDS011;383;48.766;9.270;2023-08-17T05:11:30;18.07;;;10.80;;
801;SDS011;383;48.766;9.270;2023-08-17T05:13:56;25.17;;;11.13;;
801;SDS011;383;48.766;9.270;2023-08-17T05:16:23;16.90;;;11.33;;
801;SDS011;383;48.766;9.270;2023-08-17T05:18:50;19.27;;;11.50;;
801;SDS011;383;48.766;9.270;2023-08-17T05:21:16;20.77;;;11.13;;
801;SDS011;383;48.766;9.270;2023-08-17T05:23:44;22.23;;;14.77;;
801;SDS011;383;48.766;9.270;2023-08-17T05:26:11;21.30;;;12.27;;
801;SDS011;383;48.766;9.270;2023-08-17T05:28:38;22.57;;;12.63;;
801;SDS011;383;48.766;9.270;2023-08-17T05:31:04;20.20;;;12.90;;
801;SDS011;383;48.766;9.270;2023-08-17T05:33:32;28.33;;;13.60;;
801;SDS011;383;48.766;9.270;2023-08-17T05:35:58;21.57;;;12.73;;
801;SDS011;383;48.766;9.270;2023-08-17T05:38:25;19.07;;;12.83;;
801;SDS011;383;48.766;9.270;2023-08-17T05:40:55;15.20;;;10.60;;
801;SDS011;383;48.766;9.270;2023-08-17T05:43:22;19.60;;;10.90;;
801;SDS011;383;48.766;9.270;2023-08-17T05:45:49;17.87;;;11.83;;
801;SDS011;383;48.766;9.270;2023-08-17T05:48:18;18.77;;;11.40;;
801;SDS011;383;48.766;9.270;2023-08-17T05:50:45;16.00;;;10.10;;
801;SDS011;383;48.766;9.270;2023-08-17T05:53:12;18.03;;;11.37;;
801;SDS011;383;48.766;9.270;2023-08-17T05:55:38;19.03;;;11.53;;
801;SDS011;383;48.766;9.270;2023-08-17T05:58:06;20.00;;;10.83;;
801;SDS011;383;48.766;9.270;2023-08-17T06:00:33;14.40;;;9.90;;
801;SDS011;383;48.766;9.270;2023-08-17T06:03:00;16.83;;;10.20;;
801;SDS011;383;48.766;9.270;2023-08-17T06:05:27;17.83;;;11.00;;
801;SDS011;383;48.766;9.270;2023-08-17T06:07:54;21.50;;;12.13;;
801;SDS011;383;48.766;9.270;2023-08-17T06:10:21;19.00;;;10.47;;
801;SDS011;383;48.766;9.270;2023-08-17T06:12:50;19.90;;;11.60;;
801;SDS011;383;48.766;9.270;2023-08-17T06:15:18;17.07;;;10.50;;
801;SDS011;383;48.766;9.270;2023-08-17T06:17:45;21.87;;;12.10;;
801;SDS011;383;48.766;9.270;2023-08-17T06:20:12;29.63;;;13.93;;
801;SDS011;383;48.766;9.270;2023-08-17T06:22:39;20.57;;;12.17;;
801;SDS011;383;48.766;9.270;2023-08-17T06:25:06;27.23;;;12.97;;
801;SDS011;383;48.766;9.270;2023-08-17T06:27:33;25.00;;;14.87;;
801;SDS011;383;48.766;9.270;2023-08-17T06:30:00;23.30;;;13.57;;
801;SDS011;383;48.766;9.270;2023-08-17T06:32:29;26.63;;;13.60;;
801;SDS011;383;48.766;9.270;2023-08-17T06:34:56;25.73;;;13.07;;
801;SDS011;383;48.766;9.270;2023-08-17T06:37:23;21.40;;;12.00;;
801;SDS011;383;48.766;9.270;2023-08-17T06:39:50;21.33;;;12.77;;
801;SDS011;383;48.766;9.270;2023-08-17T06:42:16;18.10;;;11.53;;
801;SDS011;383;48.766;9.270;2023-08-17T06:44:43;22.70;;;13.00;;
801;SDS011;383;48.766;9.270;2023-08-17T06:47:10;21.23;;;12.27;;
801;SDS011;383;48.766;9.270;2023-08-17T06:49:38;15.47;;;11.10;;
801;SDS011;383;48.766;9.270;2023-08-17T06:52:05;21.23;;;11.60;;
801;SDS011;383;48.766;9.270;2023-08-17T06:54:31;27.30;;;13.87;;
801;SDS011;383;48.766;9.270;2023-08-17T06:56:58;20.30;;;11.37;;
801;SDS011;383;48.766;9.270;2023-08-17T06:59:25;19.33;;;11.23;;
801;SDS011;383;48.766;9.270;2023-08-17T07:01:52;26.47;;;13.67;;
801;SDS011;383;48.766;9.270;2023-08-17T07:04:18;24.47;;;14.53;;
801;SDS011;383;48.766;9.270;2023-08-17T07:06:46;23.13;;;14.67;;
801;SDS011;383;48.766;9.270;2023-08-17T07:09:14;19.40;;;10.73;;
801;SDS011;383;48.766;9.270;2023-08-17T07:11:41;21.13;;;11.70;;
801;SDS011;383;48.766;9.270;2023-08-17T07:14:08;17.10;;;11.00;;
801;SDS011;383;48.766;9.270;2023-08-17T07:16:34;21.07;;;11.90;;
801;SDS011;383;48.766;9.270;2023-08-17T07:19:02;22.67;;;11.30;;
801;SDS011;383;48.766;9.270;2023-08-17T07:21:29;20.73;;;12.27;;
801;SDS011;383;48.766;9.270;2023-08-17T07:23:57;22.87;;;12.50;;
801;SDS011;383;48.766;9.270;2023-08-17T07:26:23;21.73;;;13.07;;
801;SDS011;383;48.766;9.270;2023-08-17T07:28:50;20.10;;;12.50;;
801;SDS011;383;48.766;9.270;2023-08-17T07:31:17;20.30;;;10.90;;
801;SDS011;383;48.766;9.270;2023-08-17T07:33:43;27.43;;;13.30;;
801;SDS011;383;48.766;9.270;2023-08-17T07:36:10;16.77;;;10.17;;
801;SDS011;383;48.766;9.270;2023-08-17T07:38:37;19.97;;;11.13;;
801;SDS011;383;48.766;9.270;2023-08-17T07:41:05;25.23;;;11.90;;
801;SDS011;383;48.766;9.270;2023-08-17T07:43:32;26.43;;;13.10;;
801;SDS011;383;48.766;9.270;2023-08-17T07:45:58;16.13;;;10.67;;
801;SDS011;383;48.766;9.270;2023-08-17T07:48:25;24.00;;;14.57;;
801;SDS011;383;48.766;9.270;2023-08-17T07:50:52;21.83;;;10.87;;
801;SDS011;383;48.766;9.270;2023-08-17T07:53:19;28.07;;;15.10;;
801;SDS011;383;48.766;9.270;2023-08-17T07:55:46;19.33;;;11.17;;
801;SDS011;383;48.766;9.270;2023-08-17T07:58:14;22.57;;;12.27;;
801;SDS011;383;48.766;9.270;2023-08-17T08:00:41;18.57;;;11.90;;
801;SDS011;383;48.766;9.270;2023-08-17T08:03:08;23.23;;;12.47;;
801;SDS011;383;48.766;9.270;2023-08-17T08:05:34;20.87;;;12.10;;
801;SDS011;383;48.766;9.270;2023-08-17T08:08:01;17.37;;;11.50;;
801;SDS011;383;48.766;9.270;2023-08-17T08:10:28;20.57;;;11.37;;
801;SDS011;383;48.766;9.270;2023-08-17T08:12:55;19.03;;;10.83;;
801;SDS011;383;48.766;9.270;2023-08-17T08:15:23;22.27;;;12.50;;
801;SDS011;383;48.766;9.270;2023-08-17T08:17:50;20.10;;;12.10;;
801;SDS011;383;48.766;9.270;2023-08-17T08:20:16;24.40;;;12.33;;
801;SDS011;383;48.766;9.270;2023-08-17T08:22:43;22.13;;;13.33;;
801;SDS011;383;48.766;9.270;2023-08-17T08:25:10;29.37;;;15.80;;
801;SDS011;383;48.766;9.270;2023-08-17T08:27:37;19.83;;;13.13;;
801;SDS011;383;48.766;9.270;2023-08-17T08:30:05;25.43;;;12.60;;
801;SDS011;383;48.766;9.270;2023-08-17T08:32:34;27.33;;;14.37;;
801;SDS011;383;48.766;9.270;2023-08-17T08:35:01;24.80;;;14.33;;
801;SDS011;383;48.766;9.270;2023-08-17T08:37:28;21.17;;;11.83;;
801;SDS011;383;48.766;9.270;2023-08-17T08:39:55;23.00;;;11.90;;
801;SDS011;383;48.766;9.270;2023-08-17T08:42:22;22.07;;;13.00;;
801;SDS011;383;48.766;9.270;2023-08-17T08:44:49;25.43;;;13.40;;
801;SDS011;383;48.766;9.270;2023-08-17T08:47:17;20.73;;;11.77;;
801;SDS011;383;48.766;9.270;2023-08-17T08:49:47;21.23;;;12.97;;
801;SDS011;383;48.766;9.270;2023-08-17T08:52:22;15.30;;;10.73;;
801;SDS011;383;48.766;9.270;2023-08-17T08:54:50;22.50;;;11.90;;
801;SDS011;383;48.766;9.270;2023-08-17T08:57:19;15.87;;;10.87;;
801;SDS011;383;48.766;9.270;2023-08-17T08:59:47;16.53;;;11.30;;
801;SDS011;383;48.766;9.270;2023-08-17T09:02:14;14.97;;;9.67;;
801;SDS011;383;48.766;9.270;2023-08-17T09:04:42;18.10;;;10.13;;
801;SDS011;383;48.766;9.270;2023-08-17T09:07:11;19.17;;;9.83;;
801;SDS011;383;48.766;9.270;2023-08-17T09:09:38;17.20;;;10.83;;
801;SDS011;383;48.766;9.270;2023-08-17T09:12:05;17.70;;;8.97;;
801;SDS011;383;48.766;9.270;2023-08-17T09:14:34;43.17;;;11.43;;
801;SDS011;383;48.766;9.270;2023-08-17T09:17:02;22.33;;;12.43;;
801;SDS011;383;48.766;9.270;2023-08-17T09:19:30;24.83;;;11.23;;
801;SDS011;383;48.766;9.270;2023-08-17T09:21:57;23.57;;;13.73;;
801;SDS011;383;48.766;9.270;2023-08-17T09:24:28;21.03;;;11.60;;
801;SDS011;383;48.766;9.270;2023-08-17T09:27:00;24.27;;;12.90;;
801;SDS011;383;48.766;9.270;2023-08-17T09:29:27;19.87;;;10.47;;
801;SDS011;383;48.766;9.270;2023-08-17T09:31:56;19.03;;;12.37;;
801;SDS011;383;48.766;9.270;2023-08-17T09:34:23;21.53;;;11.40;;
801;SDS011;383;48.766;9.270;2023-08-17T09:36:50;23.23;;;14.13;;
801;SDS011;383;48.766;9.270;2023-08-17T09:39:17;20.50;;;11.13;;
801;SDS011;383;48.766;9.270;2023-08-17T09:41:45;15.40;;;10.33;;
801;SDS011;383;48.766;9.270;2023-08-17T09:44:12;17.10;;;11.70;;
801;SDS011;383;48.766;9.270;2023-08-17T09:46:39;20.13;;;10.73;;
801;SDS011;383;48.766;9.270;2023-08-17T09:49:09;15.70;;;9.23;;
801;SDS011;383;48.766;9.270;2023-08-17T09:51:36;22.00;;;12.77;;
801;SDS011;383;48.766;9.270;2023-08-17T09:54:02;17.93;;;11.33;;
801;SDS011;383;48.766;9.270;2023-08-17T09:56:29;17.27;;;10.43;;
801;SDS011;383;48.766;9.270;2023-08-17T09:58:59;15.30;;;9.13;;
801;SDS011;383;48.766;9.270;2023-08-17T10:01:25;19.50;;;9.67;;
801;SDS011;383;48.766;9.270;2023-08-17T10:03:55;15.67;;;9.87;;
801;SDS011;383;48.766;9.270;2023-08-17T10:06:23;11.10;;;8.20;;
801;SDS011;383;48.766;9.270;2023-08-17T10:08:52;17.30;;;10.73;;
801;SDS011;383;48.766;9.270;2023-08-17T10:11:21;17.43;;;10.63;;
801;SDS011;383;48.766;9.270;2023-08-17T10:13:51;16.27;;;10.47;;
801;SDS011;383;48.766;9.270;2023-08-17T10:16:21;13.50;;;9.60;;
801;SDS011;383;48.766;9.270;2023-08-17T10:18:50;14.30;;;9.13;;
801;SDS011;383;48.766;9.270;2023-08-17T10:21:23;15.07;;;9.10;;
801;SDS011;383;48.766;9.270;2023-08-17T10:23:54;17.27;;;9.93;;
801;SDS011;383;48.766;9.270;2023-08-17T10:26:21;20.30;;;11.63;;
801;SDS011;383;48.766;9.270;2023-08-17T10:28:49;14.73;;;10.30;;
801;SDS011;383;48.766;9.270;2023-08-17T10:31:17;13.27;;;9.80;;
801;SDS011;383;48.766;9.270;2023-08-17T10:33:46;19.93;;;8.67;;
801;SDS011;383;48.766;9.270;2023-08-17T10:36:13;11.87;;;8.00;;
801;SDS011;383;48.766;9.270;2023-08-17T10:38:41;33.90;;;11.90;;
801;SDS011;383;48.766;9.270;2023-08-17T10:41:08;12.27;;;7.60;;
801;SDS011;383;48.766;9.270;2023-08-17T10:43:52;12.43;;;8.60;;
801;SDS011;383;48.766;9.270;2023-08-17T10:46:19;14.90;;;9.23;;
801;SDS011;383;48.766;9.270;2023-08-17T10:48:48;12.57;;;7.60;;
801;SDS011;383;48.766;9.270;2023-08-17T10:51:14;14.07;;;8.53;;
801;SDS011;383;48.766;9.270;2023-08-17T10:53:42;10.03;;;7.10;;
801;SDS011;383;48.766;9.270;2023-08-17T10:56:10;20.30;;;8.43;;
801;SDS011;383;48.766;9.270;2023-08-17T10:58:38;14.83;;;9.57;;
801;SDS011;383;48.766;9.270;2023-08-17T11:01:06;14.77;;;7.33;;
801;SDS011;383;48.766;9.270;2023-08-17T11:03:33;11.83;;;6.90;;
801;SDS011;383;48.766;9.270;2023-08-17T11:06:14;13.47;;;7.10;;
801;SDS011;383;48.766;9.270;2023-08-17T11:08:51;11.43;;;7.10;;
801;SDS011;383;48.766;9.270;2023-08-17T11:11:19;12.60;;;7.90;;
801;SDS011;383;48.766;9.270;2023-08-17T11:13:47;14.43;;;8.23;;
801;SDS011;383;48.766;9.270;2023-08-17T11:16:16;10.27;;;7.80;;
801;SDS011;383;48.766;9.270;2023-08-17T11:18:44;11.03;;;7.63;;
801;SDS011;383;48.766;9.270;2023-08-17T11:21:11;11.30;;;8.30;;
801;SDS011;383;48.766;9.270;2023-08-17T11:23:41;10.23;;;6.50;;
801;SDS011;383;48.766;9.270;2023-08-17T11:26:08;9.30;;;7.17;;
801;SDS011;383;48.766;9.270;2023-08-17T11:28:35;11.40;;;7.40;;
801;SDS011;383;48.766;9.270;2023-08-17T11:31:04;12.03;;;7.83;;
801;SDS011;383;48.766;9.270;2023-08-17T11:33:31;12.20;;;7.90;;
801;SDS011;383;48.766;9.270;2023-08-17T11:35:59;12.33;;;7.23;;
801;SDS011;383;48.766;9.270;2023-08-17T11:38:29;13.13;;;7.67;;
801;SDS011;383;48.766;9.270;2023-08-17T11:40:58;10.20;;;7.40;;
801;SDS011;383;48.766;9.270;2023-08-17T11:43:25;8.90;;;7.73;;
801;SDS011;383;48.766;9.270;2023-08-17T11:45:53;11.60;;;7.17;;
801;SDS011;383;48.766;9.270;2023-08-17T11:48:21;8.00;;;6.47;;
801;SDS011;383;48.766;9.270;2023-08-17T11:50:48;10.60;;;7.40;;
801;SDS011;383;48.766;9.270;2023-08-17T11:53:15;13.63;;;8.10;;
801;SDS011;383;48.766;9.270;2023-08-17T11:55:41;13.77;;;8.10;;
801;SDS011;383;48.766;9.270;2023-08-17T11:58:09;11.50;;;8.13;;
801;SDS011;383;48.766;9.270;2023-08-17T12:00:37;10.73;;;8.60;;
801;SDS011;383;48.766;9.270;2023-08-17T12:03:06;12.80;;;8.30;;
801;SDS011;383;48.766;9.270;2023-08-17T12:05:33;11.30;;;8.20;;
801;SDS011;383;48.766;9.270;2023-08-17T12:08:01;9.70;;;7.70;;
801;SDS011;383;48.766;9.270;2023-08-17T12:10:29;10.97;;;8.03;;
801;SDS011;383;48.766;9.270;2023-08-17T12:12:57;11.53;;;7.90;;
801;SDS011;383;48.766;9.270;2023-08-17T12:15:29;11.10;;;8.30;;
801;SDS011;383;48.766;9.270;2023-08-17T12:17:58;10.60;;;8.63;;
801;SDS011;383;48.766;9.270;2023-08-17T12:20:25;12.20;;;8.27;;
801;SDS011;383;48.766;9.270;2023-08-17T12:22:52;11.00;;;8.83;;
801;SDS011;383;48.766;9.270;2023-08-17T12:25:20;8.67;;;7.43;;
801;SDS011;383;48.766;9.270;2023-08-17T12:27:47;13.33;;;8.57;;
801;SDS011;383;48.766;9.270;2023-08-17T12:30:23;16.47;;;9.80;;
801;SDS011;383;48.766;9.270;2023-08-17T12:32:52;19.87;;;10.07;;
801;SDS011;383;48.766;9.270;2023-08-17T12:35:19;11.43;;;9.00;;
801;SDS011;383;48.766;9.270;2023-08-17T12:37:48;13.67;;;9.53;;
801;SDS011;383;48.766;9.270;2023-08-17T12:40:15;12.57;;;9.23;;
801;SDS011;383;48.766;9.270;2023-08-17T12:42:42;11.90;;;9.33;;
801;SDS011;383;48.766;9.270;2023-08-17T12:45:09;17.60;;;10.20;;
801;SDS011;383;48.766;9.270;2023-08-17T12:47:36;16.67;;;9.33;;
801;SDS011;383;48.766;9.270;2023-08-17T12:50:04;12.10;;;9.60;;
801;SDS011;383;48.766;9.270;2023-08-17T12:52:31;15.10;;;10.00;;
801;SDS011;383;48.766;9.270;2023-08-17T12:54:58;13.20;;;9.40;;
801;SDS011;383;48.766;9.270;2023-08-17T12:57:25;14.80;;;10.87;;
801;SDS011;383;48.766;9.270;2023-08-17T12:59:52;14.57;;;9.90;;
801;SDS011;383;48.766;9.270;2023-08-17T13:02:19;15.90;;;10.50;;
801;SDS011;383;48.766;9.270;2023-08-17T13:04:46;11.27;;;9.17;;
801;SDS011;383;48.766;9.270;2023-08-17T13:07:14;12.37;;;9.47;;
801;SDS011;383;48.766;9.270;2023-08-17T13:09:41;11.97;;;10.00;;
801;SDS011;383;48.766;9.270;2023-08-17T13:12:10;18.47;;;10.43;;
801;SDS011;383;48.766;9.270;2023-08-17T13:14:36;11.97;;;8.43;;
801;SDS011;383;48.766;9.270;2023-08-17T13:17:03;14.77;;;9.30;;
801;SDS011;383;48.766;9.270;2023-08-17T13:19:30;15.63;;;9.70;;
801;SDS011;383;48.766;9.270;2023-08-17T13:21:57;18.90;;;10.87;;
801;SDS011;383;48.766;9.270;2023-08-17T13:24:25;11.50;;;8.67;;
801;SDS011;383;48.766;9.270;2023-08-17T13:26:51;12.20;;;7.70;;
801;SDS011;383;48.766;9.270;2023-08-17T13:29:19;13.87;;;7.73;;
801;SDS011;383;48.766;9.270;2023-08-17T13:31:46;10.90;;;8.10;;
801;SDS011;383;48.766;9.270;2023-08-17T13:34:13;13.40;;;8.10;;
801;SDS011;383;48.766;9.270;2023-08-17T13:36:40;9.00;;;7.00;;
801;SDS011;383;48.766;9.270;2023-08-17T13:39:07;10.57;;;7.40;;
801;SDS011;383;48.766;9.270;2023-08-17T13:41:35;11.97;;;6.30;;
801;SDS011;383;48.766;9.270;2023-08-17T13:44:02;22.47;;;7.87;;
801;SDS011;383;48.766;9.270;2023-08-17T13:46:29;11.03;;;6.93;;
801;SDS011;383;48.766;9.270;2023-08-17T13:48:56;8.57;;;6.47;;
801;SDS011;383;48.766;9.270;2023-08-17T13:51:24;11.07;;;7.57;;
801;SDS011;383;48.766;9.270;2023-08-17T13:53:50;20.57;;;9.07;;
801;SDS011;383;48.766;9.270;2023-08-17T13:56:17;10.30;;;7.53;;
801;SDS011;383;48.766;9.270;2023-08-17T13:58:45;20.07;;;7.70;;
801;SDS011;383;48.766;9.270;2023-08-17T14:01:12;9.10;;;6.90;;
801;SDS011;383;48.766;9.270;2023-08-17T14:03:39;10.63;;;7.63;;
801;SDS011;383;48.766;9.270;2023-08-17T14:06:07;11.73;;;7.60;;
801;SDS011;383;48.766;9.270;2023-08-17T14:08:34;10.10;;;6.80;;
801;SDS011;383;48.766;9.270;2023-08-17T14:11:00;11.37;;;7.40;;
801;SDS011;383;48.766;9.270;2023-08-17T14:13:27;16.47;;;9.50;;
801;SDS011;383;48.766;9.270;2023-08-17T14:15:55;10.70;;;7.63;;
801;SDS011;383;48.766;9.270;2023-08-17T14:18:23;12.00;;;7.60;;
801;SDS011;383;48.766;9.270;2023-08-17T14:20:50;11.87;;;8.47;;
801;SDS011;383;48.766;9.270;2023-08-17T14:23:16;10.33;;;7.50;;
801;SDS011;383;48.766;9.270;2023-08-17T14:25:43;13.50;;;8.87;;
801;SDS011;383;48.766;9.270;2023-08-17T14:28:10;15.30;;;8.40;;
801;SDS011;383;48.766;9.270;2023-08-17T14:30:36;15.83;;;7.73;;
801;SDS011;383;48.766;9.270;2023-08-17T14:33:04;14.63;;;8.03;;
801;SDS011;383;48.766;9.270;2023-08-17T14:35:31;14.20;;;8.80;;
801;SDS011;383;48.766;9.270;2023-08-17T14:37:58;11.77;;;7.83;;
801;SDS011;383;48.766;9.270;2023-08-17T14:40:26;15.53;;;8.80;;
801;SDS011;383;48.766;9.270;2023-08-17T14:42:53;12.00;;;8.70;;
801;SDS011;383;48.766;9.270;2023-08-17T14:45:19;10.77;;;8.37;;
801;SDS011;383;48.766;9.270;2023-08-17T14:47:46;12.90;;;8.67;;
801;SDS011;383;48.766;9.270;2023-08-17T14:50:14;11.80;;;8.27;;
801;SDS011;383;48.766;9.270;2023-08-17T14:52:41;15.50;;;9.50;;
801;SDS011;383;48.766;9.270;2023-08-17T14:55:07;14.50;;;8.57;;
801;SDS011;383;48.766;9.270;2023-08-17T14:57:34;20.07;;;9.73;;
801;SDS011;383;48.766;9.270;2023-08-17T15:00:01;22.97;;;9.47;;
801;SDS011;383;48.766;9.270;2023-08-17T15:02:29;12.57;;;8.73;;
801;SDS011;383;48.766;9.270;2023-08-17T15:04:56;12.07;;;8.47;;
801;SDS011;383;48.766;9.270;2023-08-17T15:07:24;10.47;;;7.87;;
801;SDS011;383;48.766;9.270;2023-08-17T15:09:51;12.90;;;8.70;;
801;SDS011;383;48.766;9.270;2023-08-17T15:12:18;10.87;;;7.73;;
801;SDS011;383;48.766;9.270;2023-08-17T15:14:45;15.23;;;8.83;;
801;SDS011;383;48.766;9.270;2023-08-17T15:17:11;13.27;;;9.27;;
801;SDS011;383;48.766;9.270;2023-08-17T15:19:38;15.00;;;9.20;;
801;SDS011;383;48.766;9.270;2023-08-17T15:22:05;14.07;;;8.20;;
801;SDS011;383;48.766;9.270;2023-08-17T15:24:33;11.10;;;8.70;;